Time;durP1;ratioP1;P1;durP2;ratioP2;P2;SDS_P1;SDS_P2;PMS_P1;PMS_P2;Temp;Humidity;BMP_temperature;BMP_pressure;BME280_temperature;BME280_humidity;BME280_pressure;Samples;Min_cycle;Max_cycle;Signal;HPM_P1;HPM_P2
2021/11/11 10:00:59;;;;;;;5.68;1.23;;;;;;;;;;7426609;19;20007;-60
2021/11/11 10:03:27;;;;;;;6.32;1.00;;;;;;;;;;7401352;19;20105;-61
2021/11/11 10:05:55;;;;;;;9.40;1.30;;;;;;;;;;7425517;19;20006;-61
2021/11/11 10:08:31;;;;;;;5.47;1.88;;;;;;;;;;7425590;19;20007;-61
2021/11/11 10:11:00;;;;;;;4.78;1.27;;;;;;;;;;7423612;19;20347;-61
2021/11/11 10:13:28;;;;;;;5.10;1.20;;;;;;;;;;7424992;19;20033;-60
2021/11/11 10:16:04;;;;;;;3.38;1.10;;;;;;;;;;7425817;19;20014;-62
2021/11/11 10:18:46;;;;;;;5.15;1.25;;;;;;;;;;7425708;19;20014;-60
2021/11/11 10:24:35;;;;;;;4.13;1.40;;;;;;;;;;7424878;19;20010;-61
2021/11/11 10:27:03;;;;;;;;;;;;;;;;;;7425818;19;20093;-60
2021/11/11 10:29:32;;;;;;;4.97;0.88;;;;;;;;;;7425209;19;19998;-61
2021/11/11 10:32:19;;;;;;;6.63;1.00;;;;;;;;;;7425088;19;20082;-60
2021/11/11 10:34:56;;;;;;;4.57;0.95;;;;;;;;;;7422879;19;20109;-60
2021/11/11 10:37:27;;;;;;;24.70;8.07;;;;;;;;;;7425253;19;20006;-63
2021/11/11 10:40:12;;;;;;;6.60;2.35;;;;;;;;;;7425463;19;20014;-61
2021/11/11 10:42:42;;;;;;;3.78;1.20;;;;;;;;;;7425361;19;20018;-61
2021/11/11 10:45:14;;;;;;;4.15;0.85;;;;;;;;;;7424131;19;20014;-61
2021/11/11 10:47:49;;;;;;;3.03;1.10;;;;;;;;;;7424405;19;20553;-61
2021/11/11 10:50:20;;;;;;;3.38;0.80;;;;;;;;;;7424808;19;20030;-61
2021/11/11 10:52:53;;;;;;;5.57;1.23;;;;;;;;;;7425829;19;20034;-60
2021/11/11 10:55:23;;;;;;;4.47;0.90;;;;;;;;;;7420885;19;20082;-61
2021/11/11 10:58:05;;;;;;;2.72;0.98;;;;;;;;;;7414938;19;20036;-62
2021/11/11 11:00:49;;;;;;;6.88;1.58;;;;;;;;;;7427212;19;20093;-62
2021/11/11 11:03:19;;;;;;;;;;;;;;;;;;7427984;19;20014;-61
2021/11/11 11:05:57;;;;;;;8.25;1.13;;;;;;;;;;7406583;19;19939;-61
2021/11/11 11:08:27;;;;;;;5.25;1.00;;;;;;;;;;7395414;19;20010;-61
2021/11/11 11:11:06;;;;;;;26.88;8.63;;;;;;;;;;7395242;19;20021;-63
2021/11/11 11:13:43;;;;;;;2.53;0.80;;;;;;;;;;7393031;19;20376;-60
2021/11/11 11:16:13;;;;;;;3.85;1.08;;;;;;;;;;7397393;19;20031;-62
2021/11/11 11:18:47;;;;;;;6.60;0.98;;;;;;;;;;7395144;19;20094;-62
2021/11/11 11:21:20;;;;;;;1.80;0.60;;;;;;;;;;7395124;19;20546;-61
2021/11/11 11:23:50;;;;;;;6.80;1.23;;;;;;;;;;7395126;19;20011;-61
2021/11/11 11:26:24;;;;;;;5.00;1.30;;;;;;;;;;7393467;19;20018;-61
2021/11/11 11:29:11;;;;;;;5.93;1.10;;;;;;;;;;7395099;19;20007;-61
2021/11/11 11:32:09;;;;;;;3.20;0.90;;;;;;;;;;7394963;19;20070;-59
2021/11/11 11:34:38;;;;;;;3.85;1.20;;;;;;;;;;7393525;19;20343;-60
2021/11/11 11:37:20;;;;;;;6.22;1.15;;;;;;;;;;7394003;19;20023;-61
2021/11/11 11:39:56;;;;;;;5.03;1.05;;;;;;;;;;7394438;19;20518;-61
2021/11/11 11:42:34;;;;;;;3.40;0.93;;;;;;;;;;7394976;19;20014;-61
2021/11/11 11:45:08;;;;;;;4.47;0.93;;;;;;;;;;7394348;19;20010;-61
2021/11/11 11:47:42;;;;;;;219.18;95.55;;;;;;;;;;7394188;19;20017;-58
2021/11/11 11:50:17;;;;;;;14.38;6.15;;;;;;;;;;7394475;19;20017;-61
2021/11/11 11:52:50;;;;;;;3.40;1.45;;;;;;;;;;7396548;19;20018;-62
2021/11/11 12:08:34;;;;;;;5.43;0.93;;;;;;;;;;7393625;19;20002;-61
2021/11/11 12:11:15;;;;;;;5.53;0.98;;;;;;;;;;7391817;19;20030;-61
2021/11/11 12:39:53;;;;;;;4.20;0.98;;;;;;;;;;7392529;19;20028;-61
2021/11/11 12:42:24;;;;;;;7.22;2.67;;;;;;;;;;7392508;19;20062;-61
2021/11/11 12:44:58;;;;;;;6.35;1.60;;;;;;;;;;7392919;19;20015;-60
2021/11/11 12:47:37;;;;;;;5.60;1.98;;;;;;;;;;7392712;19;20492;-60
2021/11/11 12:50:35;;;;;;;9.95;5.13;;;;;;;;;;7391911;19;20013;-60
2021/11/11 12:53:12;;;;;;;14.30;6.85;;;;;;;;;;7394453;19;20494;-60
2021/11/11 12:56:09;;;;;;;15.57;7.10;;;;;;;;;;7390788;19;20097;-60
2021/11/11 12:59:00;;;;;;;21.92;12.27;;;;;;;;;;7395389;19;20015;-61
2021/11/11 13:01:36;;;;;;;20.02;11.48;;;;;;;;;;7392214;19;20779;-61
2021/11/11 13:04:17;;;;;;;12.18;7.25;;;;;;;;;;7392027;19;20034;-61
2021/11/11 13:06:54;;;;;;;12.40;6.82;;;;;;;;;;7391427;19;20374;-61
2021/11/11 13:09:29;;;;;;;6.72;2.35;;;;;;;;;;7391581;19;20006;-61
2021/11/11 13:12:12;;;;;;;5.95;1.58;;;;;;;;;;7392292;19;20078;-60
2021/11/11 13:14:48;;;;;;;5.15;1.35;;;;;;;;;;7390415;19;20089;-60
2021/11/11 13:17:21;;;;;;;2.35;0.93;;;;;;;;;;7391253;19;20006;-61
2021/11/11 13:19:50;;;;;;;3.90;1.02;;;;;;;;;;7391259;19;20006;-60
2021/11/11 13:22:25;;;;;;;2.40;0.90;;;;;;;;;;7390943;19;20021;-61
2021/11/11 13:25:08;;;;;;;3.70;0.90;;;;;;;;;;7388715;19;20483;-61
2021/11/11 13:28:26;;;;;;;4.97;1.50;;;;;;;;;;7391084;19;20018;-62
2021/11/11 14:00:08;;;;;;;6.50;1.75;;;;;;;;;;7390470;19;20023;-61
2021/11/11 16:27:38;;;;;;;3.15;1.10;;;;;;;;;;7395023;19;20033;-62
2021/11/11 16:30:15;;;;;;;2.08;0.93;;;;;;;;;;7392875;19;20603;-61
2021/11/11 16:32:43;;;;;;;3.72;1.35;;;;;;;;;;7392419;19;20029;-62
2021/11/11 16:35:14;;;;;;;4.20;1.20;;;;;;;;;;7390953;19;20010;-62
2021/11/11 16:37:44;;;;;;;6.13;3.85;;;;;;;;;;7392599;19;20010;-62
2021/11/11 16:40:16;;;;;;;6.13;1.83;;;;;;;;;;7392524;19;20011;-61
2021/11/11 16:42:44;;;;;;;4.75;1.80;;;;;;;;;;7392240;19;20506;-61
2021/11/11 16:45:15;;;;;;;6.13;1.10;;;;;;;;;;7395534;19;20014;-62
2021/11/11 16:47:44;;;;;;;2.03;1.08;;;;;;;;;;7391813;19;20015;-61
2021/11/11 16:50:12;;;;;;;29.45;12.57;;;;;;;;;;7392748;19;20022;-70
2021/11/11 16:52:40;;;;;;;6.45;3.35;;;;;;;;;;7393991;19;20030;-62
2021/11/11 16:55:08;;;;;;;2.30;1.00;;;;;;;;;;7390009;19;20124;-63
2021/11/11 16:57:36;;;;;;;4.03;1.25;;;;;;;;;;7393216;19;20017;-62
2021/11/11 17:00:06;;;;;;;4.40;1.00;;;;;;;;;;7391700;19;20010;-62
2021/11/11 17:02:35;;;;;;;2.72;1.00;;;;;;;;;;7391383;19;20007;-62
2021/11/11 17:05:03;;;;;;;6.18;1.65;;;;;;;;;;7391338;19;20014;-63
2021/11/11 17:07:31;;;;;;;5.22;1.10;;;;;;;;;;7391872;19;20016;-62
2021/11/11 17:09:58;;;;;;;3.35;0.90;;;;;;;;;;7393827;19;20007;-62
2021/11/11 17:12:28;;;;;;;4.35;0.75;;;;;;;;;;7391644;19;20034;-62
2021/11/11 17:14:59;;;;;;;3.08;1.00;;;;;;;;;;7391340;19;20104;-62
2021/11/11 17:17:27;;;;;;;2.42;0.98;;;;;;;;;;7391506;19;20029;-62
2021/11/11 17:19:56;;;;;;;3.38;0.98;;;;;;;;;;7391099;19;20044;-63
2021/11/11 17:22:50;;;;;;;1.75;0.82;;;;;;;;;;7390440;19;20014;-62
2021/11/11 17:25:36;;;;;;;3.30;0.90;;;;;;;;;;7391143;19;20132;-62
2021/11/11 17:30:41;;;;;;;5.13;1.70;;;;;;;;;;7391238;19;20079;-62
2021/11/11 17:33:10;;;;;;;6.00;3.00;;;;;;;;;;7387168;19;20508;-62
2021/11/11 17:35:38;;;;;;;6.50;4.85;;;;;;;;;;7389723;19;20014;-61
2021/11/11 17:38:06;;;;;;;13.55;8.57;;;;;;;;;;7392094;19;20017;-61
2021/11/11 17:40:34;;;;;;;6.60;5.28;;;;;;;;;;7390734;19;20027;-62
2021/11/11 17:43:04;;;;;;;4.30;3.00;;;;;;;;;;7391643;19;20022;-61
2021/11/11 17:45:38;;;;;;;5.72;2.45;;;;;;;;;;7391272;19;20011;-62
2021/11/11 17:48:06;;;;;;;2.83;1.90;;;;;;;;;;7390799;19;20014;-62
2021/11/11 17:50:42;;;;;;;6.68;2.08;;;;;;;;;;7391240;19;20014;-62
2021/11/11 17:53:10;;;;;;;2.67;1.33;;;;;;;;;;7393314;19;20028;-62
2021/11/11 17:55:45;;;;;;;4.22;1.30;;;;;;;;;;7388296;19;20619;-61
2021/11/11 17:58:16;;;;;;;2.15;1.33;;;;;;;;;;7390517;19;20042;-61
2021/11/11 18:00:48;;;;;;;3.10;1.05;;;;;;;;;;7389977;19;20081;-61
2021/11/11 18:03:19;;;;;;;2.70;1.00;;;;;;;;;;7390475;19;20011;-62
2021/11/11 18:05:52;;;;;;;4.00;1.13;;;;;;;;;;7390695;19;20018;-62
2021/11/11 18:10:55;;;;;;;62.35;23.40;;;;;;;;;;7389718;19;20018;-55
2021/11/11 18:13:28;;;;;;;38.10;16.77;;;;;;;;;;7389568;19;20014;-61
2021/11/11 18:16:04;;;;;;;13.32;4.95;;;;;;;;;;7391961;19;20782;-61
2021/11/11 18:18:33;;;;;;;5.88;1.75;;;;;;;;;;7397397;19;20517;-61
2021/11/11 18:21:00;;;;;;;2.10;1.00;;;;;;;;;;7396553;19;20099;-61
2021/11/11 18:23:28;;;;;;;4.43;1.48;;;;;;;;;;7396201;19;20042;-61
2021/11/11 18:25:55;;;;;;;3.47;1.23;;;;;;;;;;7396056;19;20039;-61
2021/11/11 18:28:27;;;;;;;5.47;1.13;;;;;;;;;;7392695;19;20010;-60
2021/11/11 18:31:01;;;;;;;2.92;0.98;;;;;;;;;;7396151;19;20086;-61
2021/11/11 18:33:38;;;;;;;4.60;1.08;;;;;;;;;;7394332;19;20018;-61
2021/11/11 18:36:08;;;;;;;4.72;1.00;;;;;;;;;;7395707;19;20011;-61
2021/11/11 18:38:35;;;;;;;7.57;1.70;;;;;;;;;;7396555;19;20014;-60
2021/11/11 18:41:04;;;;;;;2.65;1.40;;;;;;;;;;7397134;19;20010;-62
2021/11/11 18:43:32;;;;;;;6.25;1.02;;;;;;;;;;7397085;19;20042;-62
2021/11/11 18:46:03;;;;;;;4.82;1.10;;;;;;;;;;7396852;19;20086;-61
2021/11/11 18:48:39;;;;;;;3.90;0.90;;;;;;;;;;7396657;19;20089;-62
2021/11/11 18:51:12;;;;;;;3.60;0.95;;;;;;;;;;7396046;19;20014;-62
2021/11/11 18:53:41;;;;;;;3.13;0.70;;;;;;;;;;7399599;19;20095;-61
2021/11/11 18:56:14;;;;;;;3.37;0.97;;;;;;;;;;7395033;19;20017;-61
2021/11/11 18:58:42;;;;;;;4.50;1.08;;;;;;;;;;7395757;19;20262;-62
2021/11/11 19:01:14;;;;;;;1.70;0.90;;;;;;;;;;7394900;19;20006;-61
2021/11/11 19:03:44;;;;;;;4.57;1.10;;;;;;;;;;7396211;19;20015;-62
2021/11/11 19:06:25;;;;;;;2.13;0.90;;;;;;;;;;7395558;19;20010;-61
2021/11/11 19:11:33;;;;;;;5.10;1.23;;;;;;;;;;7395326;19;20018;-62
2021/11/11 19:14:02;;;;;;;3.45;1.10;;;;;;;;;;7394515;19;20019;-61
2021/11/11 19:19:02;;;;;;;3.42;1.00;;;;;;;;;;7395185;19;20566;-62
2021/11/11 19:21:31;;;;;;;3.33;1.05;;;;;;;;;;7394687;19;20014;-62
2021/11/11 19:23:59;;;;;;;4.93;0.95;;;;;;;;;;7395138;19;20018;-62
2021/11/11 19:26:28;;;;;;;1.35;0.68;;;;;;;;;;7394648;19;20018;-61
2021/11/11 19:28:56;;;;;;;5.32;0.82;;;;;;;;;;7395413;19;20014;-61
2021/11/11 19:31:24;;;;;;;4.95;1.10;;;;;;;;;;7395357;19;20029;-61
2021/11/11 19:34:45;;;;;;;2.65;1.10;;;;;;;;;;7395225;19;20070;-61
2021/11/11 19:39:28;;;;;;;3.45;1.08;;;;;;;;;;7394826;19;20078;-62
2021/11/11 19:47:46;;;;;;;6.70;1.15;;;;;;;;;;7394320;19;20496;-61
2021/11/11 20:09:19;;;;;;;4.55;1.98;;;;;;;;;;7394396;19;20093;-61
2021/11/11 20:15:17;;;;;;;3.60;1.00;;;;;;;;;;7393289;19;20006;-61
2021/11/11 20:17:26;;;;;;;3.88;1.20;;;;;;;;;;7391258;19;20006;-61
2021/11/11 20:41:33;;;;;;;2.45;1.13;;;;;;;;;;7392679;19;20016;-62
2021/11/11 20:49:31;;;;;;;6.95;2.30;;;;;;;;;;7392353;19;20014;-58
2021/11/11 21:04:48;;;;;;;3.00;1.15;;;;;;;;;;7393255;19;20011;-59
2021/11/11 21:07:26;;;;;;;1.70;0.85;;;;;;;;;;7395241;19;20014;-60
2021/11/11 21:10:11;;;;;;;4.07;1.50;;;;;;;;;;7392148;19;20013;-60
2021/11/11 21:15:40;;;;;;;4.38;1.00;;;;;;;;;;7390513;19;20087;-60
2021/11/11 21:18:14;;;;;;;5.75;1.17;;;;;;;;;;7391657;19;20018;-60
2021/11/11 21:20:45;;;;;;;;;;;;;;;;;;7391986;19;20014;-60
2021/11/11 21:23:12;;;;;;;4.57;1.27;;;;;;;;;;7390933;19;19938;-60
2021/11/11 21:25:40;;;;;;;4.85;1.08;;;;;;;;;;7391108;19;20019;-60
2021/11/11 21:28:08;;;;;;;3.20;0.93;;;;;;;;;;7389650;19;20074;-60
2021/11/11 21:30:37;;;;;;;2.10;1.27;;;;;;;;;;7391749;19;20015;-60
2021/11/11 21:33:06;;;;;;;3.55;1.10;;;;;;;;;;7389322;19;20475;-60
2021/11/11 21:36:08;;;;;;;3.88;1.17;;;;;;;;;;7391190;19;20018;-60
2021/11/11 21:44:10;;;;;;;3.78;0.93;;;;;;;;;;7389792;19;20002;-60
2021/11/11 21:46:38;;;;;;;2.50;0.93;;;;;;;;;;7390312;19;20006;-60
2021/11/11 21:49:05;;;;;;;2.85;0.80;;;;;;;;;;7390574;19;20011;-61
2021/11/11 21:51:33;;;;;;;4.05;0.95;;;;;;;;;;7391089;19;20010;-60
2021/11/11 21:54:06;;;;;;;3.55;1.00;;;;;;;;;;7389548;19;20024;-60
2021/11/11 21:56:45;;;;;;;1.45;0.75;;;;;;;;;;7390101;19;20089;-61
2021/11/11 21:59:43;;;;;;;3.03;1.63;;;;;;;;;;7390413;19;20022;-60
2021/11/11 22:29:45;;;;;;;1.23;0.80;;;;;;;;;;7389429;19;20417;-60
2021/11/11 22:34:39;;;;;;;1.98;0.80;;;;;;;;;;7389212;19;20014;-60
2021/11/11 22:37:09;;;;;;;1.50;0.90;;;;;;;;;;7386937;19;20018;-60
2021/11/11 22:39:37;;;;;;;1.75;0.73;;;;;;;;;;7389502;19;20354;-60
2021/11/11 22:42:06;;;;;;;1.65;0.80;;;;;;;;;;7389638;19;20018;-60
2021/11/11 22:44:33;;;;;;;2.42;0.85;;;;;;;;;;7389112;19;20014;-61
2021/11/11 22:47:02;;;;;;;2.63;0.77;;;;;;;;;;7389081;19;20014;-61
2021/11/11 22:49:34;;;;;;;1.23;0.80;;;;;;;;;;7387740;19;20010;-60
2021/11/11 22:52:04;;;;;;;1.13;0.70;;;;;;;;;;7390754;19;20078;-60
2021/11/11 22:54:33;;;;;;;1.83;0.75;;;;;;;;;;7386881;19;20042;-60
2021/11/11 23:00:52;;;;;;;1.60;0.82;;;;;;;;;;7388380;19;20011;-60
2021/11/11 23:02:47;;;;;;;2.50;0.80;;;;;;;;;;7392630;19;20021;-60
2021/11/11 23:07:58;;;;;;;2.05;1.00;;;;;;;;;;7396053;19;20022;-60
2021/11/11 23:10:45;;;;;;;3.22;1.00;;;;;;;;;;7395466;19;20015;-60
2021/11/11 23:25:03;;;;;;;1.58;0.90;;;;;;;;;;7394718;19;20017;-60
2021/11/11 23:33:06;;;;;;;1.45;0.90;;;;;;;;;;7394979;19;20021;-61
2021/11/11 23:35:35;;;;;;;6.38;1.77;;;;;;;;;;7395519;19;20011;-60
2021/11/11 23:38:04;;;;;;;1.83;0.98;;;;;;;;;;7392962;19;20015;-59
2021/11/11 23:40:33;;;;;;;2.83;1.02;;;;;;;;;;7394674;19;20011;-60
2021/11/11 23:43:01;;;;;;;3.17;1.83;;;;;;;;;;7394723;19;20011;-60
2021/11/11 23:45:29;;;;;;;5.78;1.38;;;;;;;;;;7394130;19;20014;-60
